Terminal Aerodrome Forecast
Issued by NWS

Home | Current Version | Previous Version | Text Only | Print | Product List | Glossary On
Versions: 1 2 3 4 5 6 7 8 9 10 11 12 13 14
000
FTAK31 PAFA 290114 AAA
TAFAUN
TAF AMD
PAUN 290114Z 2901/2924 31008KT 6SM -SHRA BR BKN035 OVC040
     FM290500 34010KT P6SM -SHRA BKN035 OVC040
     FM292000 07006KT P6SM VCSH OVC040=

USA.gov is the U.S. government's official web portal to all federal, state and local government web resources and services.